createdAt,value
2019-04-29T00:03:55.365Z,14.15
2019-04-29T00:08:59.212Z,22.32
2019-04-29T00:14:02.880Z,15.17
2019-04-29T00:19:10.883Z,18.23
2019-04-29T00:24:14.317Z,24.95
2019-04-29T00:29:23.947Z,20.30
2019-04-29T00:34:27.557Z,20.70
2019-04-29T00:39:47.647Z,19.15
2019-04-29T00:44:51.321Z,15.20
2019-04-29T00:49:54.776Z,19.77
2019-04-29T00:55:08.697Z,13.70
2019-04-29T01:00:14.582Z,18.80
2019-04-29T01:05:18.030Z,21.20
2019-04-29T01:10:21.794Z,22.15
2019-04-29T01:15:25.257Z,35.90
2019-04-29T01:20:28.754Z,18.02
2019-04-29T01:25:32.205Z,23.00
2019-04-29T01:30:38.731Z,18.15
2019-04-29T01:35:42.590Z,17.80
2019-04-29T01:40:47.919Z,15.70
2019-04-29T01:45:51.639Z,20.90
2019-04-29T01:50:55.136Z,15.30
2019-04-29T01:55:58.574Z,16.60
2019-04-29T02:01:02.040Z,16.50
2019-04-29T02:06:05.582Z,14.85
2019-04-29T02:11:09.022Z,20.92
2019-04-29T02:16:12.757Z,13.08
2019-04-29T02:21:16.535Z,16.57
2019-04-29T02:26:19.981Z,17.27
2019-04-29T02:37:29.548Z,16.15
2019-04-29T02:42:35.058Z,15.38
2019-04-29T02:47:38.509Z,26.90
2019-04-29T02:52:42.199Z,25.12
2019-04-29T02:57:47.313Z,17.53
2019-04-29T03:03:19.489Z,31.52
2019-04-29T03:08:23.251Z,15.18
2019-04-29T03:13:27.045Z,15.57
2019-04-29T03:18:32.195Z,16.43
2019-04-29T03:23:35.710Z,14.80
2019-04-29T03:28:39.418Z,14.95
2019-04-29T03:33:43.151Z,17.47
2019-04-29T03:38:46.678Z,14.73
2019-04-29T03:43:50.453Z,10.15
2019-04-29T03:48:53.896Z,11.63
2019-04-29T03:53:57.667Z,11.18
2019-04-29T03:59:01.234Z,15.60
2019-04-29T04:04:06.477Z,20.35
2019-04-29T04:09:11.932Z,11.63
2019-04-29T04:14:15.649Z,14.03
2019-04-29T04:19:20.214Z,17.93
2019-04-29T04:24:23.738Z,23.12
2019-04-29T04:29:27.416Z,14.65
2019-04-29T04:34:30.872Z,14.47
2019-04-29T04:39:35.981Z,16.93
2019-04-29T04:44:48.923Z,15.58
2019-04-29T04:49:52.372Z,28.83
2019-04-29T04:54:56.059Z,22.85
2019-04-29T04:59:59.509Z,23.63
2019-04-29T05:05:03.323Z,29.27
2019-04-29T05:10:07.628Z,21.13
2019-04-29T05:15:11.431Z,17.57
2019-04-29T05:20:15.076Z,26.77
2019-04-29T05:25:18.566Z,26.43
2019-04-29T05:30:23.855Z,20.60
2019-04-29T05:35:44.180Z,16.70
2019-04-29T05:40:52.414Z,11.70
2019-04-29T05:46:09.240Z,24.90
2019-04-29T05:51:17.364Z,26.90
2019-04-29T05:56:20.885Z,24.52
2019-04-29T06:01:25.997Z,25.35
2019-04-29T06:06:29.698Z,26.42
2019-04-29T06:11:33.186Z,22.77
2019-04-29T06:16:36.619Z,24.02
2019-04-29T06:21:40.143Z,21.60
2019-04-29T06:26:43.887Z,31.77
2019-04-29T06:31:47.441Z,24.43
2019-04-29T06:36:50.887Z,28.77
2019-04-29T06:41:54.497Z,26.30
2019-04-29T06:46:58.244Z,27.02
2019-04-29T06:52:01.953Z,36.77
2019-04-29T06:57:05.671Z,17.17
2019-04-29T07:02:14.154Z,15.83
2019-04-29T07:07:14.938Z,14.68
2019-04-29T07:12:18.673Z,15.63
2019-04-29T07:17:22.376Z,11.70
2019-04-29T07:22:27.413Z,13.40
2019-04-29T07:27:34.433Z,12.25
2019-04-29T07:32:36.736Z,8.55
2019-04-29T07:37:40.202Z,10.80
2019-04-29T07:42:43.827Z,9.95
2019-04-29T07:47:56.342Z,10.45
2019-04-29T07:52:54.370Z,9.75
2019-04-29T07:57:57.824Z,8.95
2019-04-29T08:03:02.443Z,10.35
2019-04-29T08:08:06.361Z,14.20
2019-04-29T08:13:11.267Z,13.30
2019-04-29T08:18:16.274Z,11.43
2019-04-29T08:23:20.796Z,13.18
2019-04-29T08:28:25.905Z,16.20
2019-04-29T08:39:32.905Z,19.00
2019-04-29T08:44:44.423Z,18.82
2019-04-29T08:49:48.320Z,17.65
2019-04-29T08:54:55.406Z,18.25
2019-04-29T08:59:57.207Z,16.90
2019-04-29T09:05:11.505Z,16.37
2019-04-29T09:10:14.334Z,12.10
2019-04-29T09:15:18.223Z,12.60
2019-04-29T09:20:21.818Z,15.07
2019-04-29T09:25:28.051Z,11.78
2019-04-29T09:30:31.946Z,13.88
2019-04-29T09:35:38.806Z,14.85
2019-04-29T09:40:45.749Z,10.25
2019-04-29T09:45:58.625Z,16.62
2019-04-29T09:51:02.275Z,15.05
2019-04-29T09:56:05.996Z,12.78
2019-04-29T10:01:28.882Z,15.70
2019-04-29T10:06:34.042Z,14.80
2019-04-29T10:11:37.573Z,10.15
2019-04-29T10:16:42.671Z,12.50
2019-04-29T10:21:46.383Z,11.68
2019-04-29T10:26:50.011Z,11.05
2019-04-29T10:31:54.222Z,11.73
2019-04-29T10:36:57.674Z,11.35
2019-04-29T10:42:03.039Z,12.60
2019-04-29T10:47:17.068Z,13.58
2019-04-29T10:52:20.633Z,11.23
2019-04-29T10:57:29.011Z,17.55
2019-04-29T11:02:35.695Z,8.45
2019-04-29T11:07:43.528Z,15.03
2019-04-29T11:12:47.401Z,13.68
2019-04-29T11:17:58.745Z,13.98
2019-04-29T11:23:17.524Z,14.05
2019-04-29T11:28:20.810Z,11.55
2019-04-29T11:33:29.272Z,10.65
2019-04-29T11:38:36.051Z,9.55
2019-04-29T11:43:38.309Z,12.18
2019-04-29T11:48:41.821Z,16.97
2019-04-29T11:53:45.407Z,16.87
2019-04-29T11:58:59.964Z,17.45
2019-04-29T12:04:23.070Z,16.23
2019-04-29T12:09:30.461Z,13.88
2019-04-29T12:14:50.305Z,13.20
2019-04-29T12:20:10.096Z,11.35
2019-04-29T12:25:13.868Z,11.60
2019-04-29T12:30:19.029Z,16.00
2019-04-29T12:35:30.340Z,13.60
2019-04-29T12:40:55.124Z,14.28
2019-04-29T12:46:05.248Z,10.55
2019-04-29T12:51:08.801Z,10.50
2019-04-29T12:56:12.804Z,13.98
2019-04-29T13:01:50.741Z,15.13
2019-04-29T13:07:00.911Z,13.75
2019-04-29T13:12:18.901Z,14.35
2019-04-29T13:17:14.802Z,20.05
2019-04-29T13:22:17.347Z,16.93
2019-04-29T13:27:25.280Z,17.30
2019-04-29T13:32:29.854Z,16.10
2019-04-29T13:37:31.926Z,14.93
2019-04-29T13:42:35.461Z,15.17
2019-04-29T13:47:43.280Z,10.82
2019-04-29T13:52:46.736Z,11.05
2019-04-29T13:57:50.821Z,13.45
2019-04-29T14:03:02.245Z,13.93
2019-04-29T14:08:05.759Z,11.43
2019-04-29T14:13:13.437Z,11.03
2019-04-29T14:18:14.638Z,12.43
2019-04-29T14:23:18.088Z,11.20
2019-04-29T14:28:21.523Z,12.15
2019-04-29T14:33:26.783Z,14.07
2019-04-29T14:44:18.071Z,11.83
2019-04-29T14:49:25.923Z,13.90
2019-04-29T14:54:29.416Z,14.85
2019-04-29T14:59:33.022Z,14.95
2019-04-29T15:04:40.990Z,10.58
2019-04-29T15:09:47.141Z,15.20
2019-04-29T15:15:04.918Z,13.60
2019-04-29T15:20:30.372Z,17.67
2019-04-29T15:25:31.085Z,15.83
2019-04-29T15:30:36.686Z,12.93
2019-04-29T15:35:39.835Z,15.08
2019-04-29T15:40:43.451Z,16.00
2019-04-29T15:45:47.180Z,18.95
2019-04-29T15:50:50.613Z,14.63
2019-04-29T15:56:06.096Z,12.33
2019-04-29T16:01:12.899Z,14.83
2019-04-29T16:06:22.229Z,16.70
2019-04-29T16:11:39.481Z,17.07
2019-04-29T16:16:42.935Z,15.35
2019-04-29T16:21:46.706Z,15.32
2019-04-29T16:26:53.786Z,14.45
2019-04-29T16:32:02.587Z,14.78
2019-04-29T16:37:01.199Z,14.15
2019-04-29T16:42:18.602Z,13.40
2019-04-29T16:47:23.173Z,15.25
2019-04-29T16:52:26.916Z,13.38
2019-04-29T16:57:30.365Z,13.20
2019-04-29T17:02:33.823Z,13.50
2019-04-29T17:07:37.328Z,8.58
2019-04-29T17:12:42.480Z,8.30
2019-04-29T17:17:46.007Z,7.90
2019-04-29T17:22:49.631Z,6.90
2019-04-29T17:28:00.717Z,5.90
2019-04-29T17:33:09.067Z,6.67
2019-04-29T17:38:12.784Z,6.85
2019-04-29T17:50:09.202Z,6.80
2019-04-29T17:55:41.055Z,5.90
2019-04-29T18:12:58.262Z,6.67
2019-04-29T18:18:08.769Z,6.33
2019-04-29T18:46:25.903Z,7.33
2019-04-29T18:51:30.742Z,8.50
2019-04-29T18:56:36.325Z,7.08
2019-04-29T19:01:39.649Z,7.08
2019-04-29T19:06:43.184Z,6.33
2019-04-29T19:12:18.284Z,7.37
2019-04-29T19:17:23.337Z,7.78
2019-04-29T19:28:11.531Z,10.50
